createdAt,value
2022-10-09T11:16:04.757Z,18.4
2022-10-09T11:17:04.685Z,18.7
2022-10-09T11:18:04.860Z,19
2022-10-09T11:20:05.084Z,19.5
2022-10-09T11:21:04.685Z,19.9
2022-10-09T11:22:04.700Z,20.2
2022-10-09T11:23:05.079Z,20.4
2022-10-09T11:24:05.218Z,20.5
2022-10-09T11:25:04.693Z,20.6
2022-10-09T11:26:04.699Z,20.9
2022-10-09T11:27:04.688Z,20.5
2022-10-09T11:28:04.747Z,20.3
2022-10-09T11:29:04.684Z,20.3
2022-10-09T11:30:05.297Z,20.4
2022-10-09T11:31:04.930Z,20.7
2022-10-09T11:32:04.749Z,21
2022-10-09T11:33:04.805Z,21.1
2022-10-09T11:34:05.244Z,21.3
2022-10-09T11:35:04.690Z,21.4
2022-10-09T11:36:04.897Z,21.7
2022-10-09T11:37:04.692Z,21.7
2022-10-09T11:38:04.734Z,21.9
2022-10-09T11:39:05.215Z,21.7
2022-10-09T11:40:05.239Z,22
2022-10-09T11:41:07.377Z,22.1
2022-10-09T11:42:04.693Z,22.1
2022-10-09T11:43:04.688Z,22.4
2022-10-09T11:44:04.794Z,22.4
2022-10-09T11:46:04.800Z,21.7
2022-10-09T11:47:08.798Z,21.7
2022-10-09T11:48:04.697Z,22
2022-10-09T11:49:04.694Z,22
2022-10-09T11:50:04.698Z,22
2022-10-09T11:51:04.691Z,22
2022-10-09T11:53:04.694Z,21.7
2022-10-09T11:55:04.898Z,21.7
2022-10-09T11:56:04.945Z,21.8
2022-10-09T11:58:05.266Z,21
2022-10-09T11:59:05.122Z,20.5
2022-10-09T12:00:04.804Z,20.9
2022-10-09T12:01:05.189Z,20.3
2022-10-09T12:02:05.005Z,20
2022-10-09T12:03:04.706Z,20.2
2022-10-09T12:04:05.157Z,20.4
2022-10-09T12:05:04.712Z,20.5
2022-10-09T12:06:05.074Z,20.7
2022-10-09T12:07:05.183Z,20.9
2022-10-09T12:08:04.695Z,20.7
2022-10-09T12:09:04.714Z,20.7
2022-10-09T12:10:05.120Z,20.6
2022-10-09T12:11:04.699Z,20.8
2022-10-09T12:12:04.704Z,21
2022-10-09T12:13:04.700Z,21.1
2022-10-09T12:14:04.719Z,21.2
2022-10-09T12:15:04.740Z,20.8
2022-10-09T12:16:04.706Z,20.5
2022-10-09T12:19:04.982Z,20.4
2022-10-09T12:20:04.734Z,20.7
2022-10-09T12:21:05.171Z,21.1
2022-10-09T12:22:04.716Z,21.3
2022-10-09T12:23:25.633Z,21.4
2022-10-09T12:24:05.284Z,21.5
2022-10-09T12:25:04.707Z,21.5
2022-10-09T12:26:05.630Z,21.5
2022-10-09T12:27:05.567Z,21.6
2022-10-09T12:28:04.792Z,21.5
2022-10-09T12:29:04.715Z,21.1
2022-10-09T12:30:05.200Z,21.1
2022-10-09T12:31:04.760Z,21.2
2022-10-09T12:32:04.708Z,21
2022-10-09T12:33:04.731Z,21
2022-10-09T12:34:04.700Z,21.3
2022-10-09T12:35:05.388Z,21.5
2022-10-09T12:38:04.717Z,22
2022-10-09T12:39:05.200Z,22
2022-10-09T12:41:04.741Z,21.4
2022-10-09T12:42:04.712Z,21.5
2022-10-09T12:43:04.715Z,21.4
2022-10-09T12:44:05.312Z,21.4
2022-10-09T12:45:04.712Z,21.3
2022-10-09T12:46:05.310Z,21.3
2022-10-09T12:47:04.737Z,21
2022-10-09T12:48:04.713Z,20.9
2022-10-09T12:49:05.268Z,21.1
2022-10-09T12:52:04.969Z,21.3
2022-10-09T12:53:04.717Z,21.5
2022-10-09T12:54:04.990Z,21.6
2022-10-09T12:55:04.713Z,21.5
2022-10-09T12:56:04.720Z,21.2
2022-10-09T12:57:04.717Z,21.5
2022-10-09T12:58:04.718Z,21.4
2022-10-09T12:59:05.131Z,21.2
2022-10-09T13:03:05.243Z,21.6
2022-10-09T13:04:04.747Z,21.9
2022-10-09T13:05:04.719Z,22.2
2022-10-09T13:06:04.733Z,22.3
2022-10-09T13:07:05.298Z,22.3
2022-10-09T13:08:04.724Z,22.3
2022-10-09T13:09:04.720Z,22.5
2022-10-09T13:10:04.729Z,22.5
2022-10-09T13:11:04.723Z,22.7
2022-10-09T13:12:04.747Z,22.9
2022-10-09T13:15:05.337Z,23.4
2022-10-09T13:16:04.746Z,23.6
2022-10-09T13:17:05.884Z,23.3
2022-10-09T13:20:04.728Z,21.9
2022-10-09T13:21:05.282Z,22
2022-10-09T13:22:04.724Z,21.5
2022-10-09T13:24:05.202Z,21.3
2022-10-09T13:25:04.720Z,21.3
2022-10-09T13:26:04.728Z,21.6
2022-10-09T13:27:04.735Z,21.5
2022-10-09T13:28:04.800Z,21.7
2022-10-09T13:29:04.760Z,21.7
2022-10-09T13:30:04.728Z,21.8
2022-10-09T13:32:04.718Z,22.2
2022-10-09T13:33:05.188Z,21.9
2022-10-09T13:34:04.898Z,21.7
2022-10-09T13:35:04.758Z,21.4
2022-10-09T13:36:05.145Z,20.9
2022-10-09T13:37:04.736Z,21.1
2022-10-09T13:38:04.799Z,21.3
2022-10-09T13:39:04.726Z,21.5
2022-10-09T13:40:04.870Z,21.7
2022-10-09T13:41:04.760Z,21.6
2022-10-09T13:42:04.732Z,21.4
2022-10-09T13:43:04.730Z,21.4
2022-10-09T13:45:04.730Z,21.2
2022-10-09T13:47:04.857Z,21.4
2022-10-09T13:48:04.731Z,21.3
2022-10-09T13:49:04.745Z,21.3
2022-10-09T13:50:05.141Z,20.6
2022-10-09T13:51:04.736Z,20.3
2022-10-09T13:52:05.208Z,20.2
2022-10-09T13:53:04.732Z,20.3
2022-10-09T13:55:04.740Z,20.3
2022-10-09T13:56:04.732Z,20.1
2022-10-09T13:57:04.757Z,20.1
2022-10-09T13:58:04.737Z,20.2
2022-10-09T13:59:05.100Z,20.1
2022-10-09T14:00:04.796Z,20.2
2022-10-09T14:01:04.806Z,19.9
2022-10-09T14:02:04.991Z,19.6
2022-10-09T14:03:04.968Z,19.7
2022-10-09T14:04:04.749Z,19.8
2022-10-09T14:06:05.155Z,19.7
2022-10-09T14:07:04.733Z,19.6
2022-10-09T14:08:04.910Z,19.6
2022-10-09T14:09:04.901Z,19.9
2022-10-09T14:10:05.025Z,19.8
2022-10-09T14:11:05.060Z,20
2022-10-09T14:12:04.808Z,20.4
2022-10-09T14:13:04.745Z,20.4
2022-10-09T14:14:04.958Z,20.5
2022-10-09T14:15:04.735Z,20.7
2022-10-09T14:16:05.435Z,20.3
2022-10-09T14:17:04.757Z,19.9
2022-10-09T14:18:05.312Z,19.9
2022-10-09T14:19:04.745Z,19.9
2022-10-09T14:20:05.424Z,19.8
2022-10-09T14:21:05.556Z,20
2022-10-09T14:22:04.981Z,20.2
2022-10-09T14:23:05.535Z,20.5
2022-10-09T14:24:04.737Z,20.1
2022-10-09T14:26:04.745Z,20.2
2022-10-09T14:27:05.301Z,20.2
2022-10-09T14:28:04.813Z,20.2
2022-10-09T14:29:04.790Z,19.8
2022-10-09T14:30:04.747Z,19.6
2022-10-09T14:31:04.769Z,19.6
2022-10-09T14:32:04.739Z,19.7
2022-10-09T14:33:04.744Z,19.8
2022-10-09T14:34:04.748Z,19.9
2022-10-09T14:35:04.915Z,20
2022-10-09T14:38:05.538Z,19.8
2022-10-09T14:39:04.750Z,19.7
2022-10-09T14:40:04.900Z,19.4
2022-10-09T14:41:05.031Z,19.5
2022-10-09T14:42:04.744Z,19.5
2022-10-09T14:43:04.754Z,19.7
2022-10-09T14:44:05.485Z,19.9
2022-10-09T14:45:04.756Z,19.9
2022-10-09T14:46:04.787Z,19.8
2022-10-09T14:47:04.906Z,19.7
2022-10-09T14:49:04.795Z,19.8
2022-10-09T14:50:04.740Z,19.5
2022-10-09T14:51:04.804Z,19.6
2022-10-09T14:52:04.753Z,19.4
2022-10-09T14:53:05.388Z,19.5
2022-10-09T14:54:04.746Z,19.5
2022-10-09T14:55:04.756Z,19.3
2022-10-09T14:56:04.904Z,19.4
2022-10-09T14:57:04.761Z,19.3
2022-10-09T15:00:05.387Z,19.5
2022-10-09T15:01:04.753Z,19.5
2022-10-09T15:02:04.753Z,19.4
2022-10-09T15:03:05.049Z,19.2
2022-10-09T15:04:04.858Z,19.1
2022-10-09T15:05:04.762Z,19.2
2022-10-09T15:06:05.107Z,19.3
2022-10-09T15:07:04.754Z,19.4
2022-10-09T15:08:04.781Z,19.6
2022-10-09T15:09:05.951Z,19.8
2022-10-09T15:13:05.561Z,18.9
2022-10-09T15:15:04.756Z,18.9
2022-10-09T15:16:04.755Z,18.8
2022-10-09T15:17:04.757Z,18.6
2022-10-09T15:18:05.331Z,18.5
2022-10-09T15:20:04.769Z,18.5
2022-10-09T15:21:05.643Z,18.4
2022-10-09T15:22:04.790Z,18.4
2022-10-09T15:23:04.752Z,18.4
2022-10-09T15:24:04.763Z,18.3
2022-10-09T15:25:04.767Z,18.5
2022-10-09T15:26:04.755Z,18.8
2022-10-09T15:27:04.761Z,19
2022-10-09T15:28:05.588Z,19.1
2022-10-09T15:29:04.799Z,19.2
2022-10-09T15:30:04.761Z,18.8
2022-10-09T15:31:04.758Z,18.7
2022-10-09T15:32:05.291Z,18.4
2022-10-09T15:34:04.760Z,18.4
2022-10-09T15:35:05.389Z,18.3
2022-10-09T15:36:04.768Z,18.6
2022-10-09T15:37:04.796Z,18.5
2022-10-09T15:39:05.159Z,18.4
2022-10-09T15:43:04.770Z,19
2022-10-09T15:44:04.762Z,18.9
2022-10-09T15:45:05.012Z,18.9
2022-10-09T15:46:04.775Z,18.9
2022-10-09T15:47:04.766Z,18.9
2022-10-09T15:48:05.076Z,19.1
2022-10-09T15:49:04.767Z,18.9
2022-10-09T15:50:04.764Z,18.8
2022-10-09T15:51:04.773Z,18.8
2022-10-09T15:52:04.766Z,18.6
2022-10-09T15:54:04.771Z,18.8
2022-10-09T15:55:05.220Z,18.9
2022-10-09T15:56:04.783Z,18.6
2022-10-09T15:57:04.765Z,18.6
2022-10-09T15:58:04.773Z,18.7
2022-10-09T15:59:04.804Z,18.5
2022-10-09T16:00:04.776Z,18.5
2022-10-09T16:02:04.769Z,18.2
2022-10-09T16:05:04.872Z,18.3
2022-10-09T16:06:04.768Z,18.4
2022-10-09T16:07:05.300Z,18.5
2022-10-09T16:08:04.778Z,18.4
2022-10-09T16:10:04.804Z,18.2
2022-10-09T16:11:04.978Z,18.4
2022-10-09T16:12:04.964Z,17.9
2022-10-09T16:13:04.777Z,18
2022-10-09T16:14:04.768Z,18.2
2022-10-09T16:16:05.275Z,18.4
2022-10-09T16:17:10.339Z,18.5
2022-10-09T16:18:04.920Z,18.3
2022-10-09T16:19:04.781Z,18.2
2022-10-09T16:20:05.499Z,18
2022-10-09T16:23:05.002Z,17.7
2022-10-09T16:24:04.791Z,17.6
2022-10-09T16:25:04.865Z,17.8
2022-10-09T16:26:04.787Z,17.8
2022-10-09T16:28:05.045Z,18.2
2022-10-09T16:29:04.784Z,18.3
2022-10-09T16:31:04.768Z,18.5
2022-10-09T16:32:05.282Z,18.5
2022-10-09T16:33:09.095Z,18.5
2022-10-09T16:34:05.462Z,18.5
2022-10-09T16:36:05.337Z,18.6
2022-10-09T16:37:04.782Z,18.6
2022-10-09T16:38:04.781Z,18.6
2022-10-09T16:39:04.860Z,18.5
2022-10-09T16:40:04.878Z,18.4
2022-10-09T16:41:04.807Z,18.2
2022-10-09T16:42:04.784Z,18.4
2022-10-09T16:44:04.771Z,18.2
2022-10-09T16:45:04.858Z,18.3
2022-10-09T16:47:04.785Z,18.3
2022-10-09T16:49:04.777Z,18.4
2022-10-09T16:50:05.304Z,18.4
2022-10-09T16:51:04.787Z,18.5
2022-10-09T16:52:04.859Z,18.5
2022-10-09T16:53:05.400Z,18.4
2022-10-09T16:54:04.776Z,18.4
2022-10-09T16:55:04.831Z,18.3
2022-10-09T16:56:05.196Z,18.4
2022-10-09T16:58:05.260Z,18.5
2022-10-09T16:59:04.777Z,18.3
2022-10-09T17:00:04.949Z,18.2
2022-10-09T17:02:05.344Z,18.3
2022-10-09T17:03:04.992Z,18.3
2022-10-09T17:04:04.781Z,18.2
2022-10-09T17:05:05.138Z,18.1
2022-10-09T17:06:04.782Z,18.1
2022-10-09T17:07:04.786Z,18.1
2022-10-09T17:08:04.953Z,18.1
2022-10-09T17:09:04.779Z,18.1
2022-10-09T17:10:05.259Z,18.1
2022-10-09T17:11:04.781Z,18.1
2022-10-09T17:13:04.789Z,18
2022-10-09T17:14:04.794Z,17.9
2022-10-09T17:15:05.041Z,17.8
2022-10-09T17:16:07.662Z,17.6
2022-10-09T17:18:04.790Z,17.4
2022-10-09T17:19:04.837Z,17.3
2022-10-09T17:20:04.790Z,17.3
2022-10-09T17:21:04.797Z,17.2
2022-10-09T17:22:04.807Z,17.1
2022-10-09T17:23:04.794Z,17
2022-10-09T17:24:04.810Z,17
2022-10-09T17:25:04.798Z,17
2022-10-09T17:26:04.796Z,17
2022-10-09T17:27:04.797Z,16.9
2022-10-09T17:30:04.781Z,16.9
2022-10-09T17:31:04.792Z,16.9
2022-10-09T17:32:05.432Z,16.8
2022-10-09T17:34:04.786Z,16.8
2022-10-09T17:35:05.015Z,16.7
2022-10-09T17:36:04.815Z,16.6
2022-10-09T17:37:04.800Z,16.6
2022-10-09T17:38:04.788Z,16.5
2022-10-09T17:39:04.797Z,16.5
2022-10-09T17:42:04.821Z,16.2
2022-10-09T17:43:04.822Z,16.2
2022-10-09T17:45:04.801Z,16.1
2022-10-09T17:49:05.425Z,16
2022-10-09T17:50:04.974Z,16
2022-10-09T17:52:04.798Z,16.1
2022-10-09T17:53:04.824Z,16
2022-10-09T17:54:07.054Z,15.9
2022-10-09T17:56:04.799Z,15.9
2022-10-09T17:57:04.798Z,15.9
2022-10-09T17:58:04.862Z,15.8
2022-10-09T17:59:04.804Z,15.8
2022-10-09T18:01:04.847Z,15.7
2022-10-09T18:02:04.806Z,15.7
2022-10-09T18:03:04.806Z,15.7
2022-10-09T18:04:04.910Z,15.7
2022-10-09T18:05:04.799Z,15.7
2022-10-09T18:06:04.802Z,15.7
2022-10-09T18:08:05.400Z,15.6
2022-10-09T18:09:04.813Z,15.5
2022-10-09T18:10:04.793Z,15.5
2022-10-09T18:11:04.865Z,15.5
2022-10-09T18:12:04.904Z,15.6
2022-10-09T18:13:04.797Z,15.5
2022-10-09T18:14:04.966Z,15.5
2022-10-09T18:15:04.813Z,15.5
2022-10-09T18:17:04.799Z,15.5
2022-10-09T18:18:04.945Z,15.5
2022-10-09T18:19:04.801Z,15.4
2022-10-09T18:20:04.813Z,15.4
2022-10-09T18:22:04.803Z,15.4
2022-10-09T18:24:04.803Z,15.4
2022-10-09T18:25:05.340Z,15.4
2022-10-09T18:26:04.800Z,15.4
2022-10-09T18:27:05.283Z,15.4
2022-10-09T18:28:05.593Z,15.4
2022-10-09T18:29:04.843Z,15.4
2022-10-09T18:30:05.166Z,15.4
2022-10-09T18:32:04.804Z,15.4
2022-10-09T18:33:04.807Z,15.4
2022-10-09T18:34:05.010Z,15.4
2022-10-09T18:35:04.799Z,15.4
2022-10-09T18:36:04.879Z,15.5
2022-10-09T18:37:04.813Z,15.4
2022-10-09T18:38:04.805Z,15.4
2022-10-09T18:40:04.810Z,15.4
2022-10-09T18:41:04.805Z,15.3
2022-10-09T18:42:04.797Z,15.4
2022-10-09T18:44:05.337Z,15.4
2022-10-09T18:46:05.088Z,15.4
2022-10-09T18:48:04.883Z,15.4
2022-10-09T18:49:05.063Z,15.4
2022-10-09T18:50:05.336Z,15.4
2022-10-09T18:51:04.824Z,15.3
2022-10-09T18:53:04.870Z,15.3
2022-10-09T18:55:04.837Z,15.2
2022-10-09T18:57:04.808Z,15.2
2022-10-09T18:58:04.809Z,15.2
2022-10-09T18:59:05.057Z,15.1
2022-10-09T19:01:07.495Z,15.2
2022-10-09T19:02:04.806Z,15.2
2022-10-09T19:04:04.812Z,15.2
2022-10-09T19:05:05.279Z,15.2
2022-10-09T19:06:04.820Z,15.2
2022-10-09T19:08:04.831Z,15.2
2022-10-09T19:09:05.266Z,15.1
2022-10-09T19:10:04.812Z,15.1
2022-10-09T19:11:04.902Z,15.1
2022-10-09T19:12:04.806Z,15.1
2022-10-09T19:13:05.184Z,15.1
2022-10-09T19:15:09.650Z,15
2022-10-09T19:17:05.403Z,15
2022-10-09T19:18:04.811Z,15
2022-10-09T19:19:04.810Z,15
2022-10-09T19:20:04.814Z,15
2022-10-09T19:21:04.813Z,14.9
2022-10-09T19:23:04.947Z,14.8
2022-10-09T19:24:04.911Z,14.8
2022-10-09T19:25:04.810Z,14.7
2022-10-09T19:26:04.814Z,14.7
2022-10-09T19:27:04.807Z,14.7
2022-10-09T19:29:04.867Z,14.6
2022-10-09T19:30:04.964Z,14.6
2022-10-09T19:31:04.808Z,14.6
2022-10-09T19:32:04.927Z,14.5
2022-10-09T19:33:05.323Z,14.5
2022-10-09T19:34:05.390Z,14.5
2022-10-09T19:36:04.820Z,14.4
2022-10-09T19:38:04.872Z,14.3
2022-10-09T19:39:05.044Z,14.3
2022-10-09T19:41:04.815Z,14.3
2022-10-09T19:44:05.331Z,14.3
2022-10-09T19:46:04.821Z,14.3
2022-10-09T19:47:04.805Z,14.3
2022-10-09T19:48:04.812Z,14.2
2022-10-09T19:52:04.813Z,14.2
2022-10-09T19:53:04.810Z,14.3
2022-10-09T19:54:04.819Z,14.3
2022-10-09T19:56:04.831Z,14.3
2022-10-09T19:58:05.302Z,14.3
2022-10-09T19:59:04.824Z,14.3
2022-10-09T20:00:05.118Z,14.2
2022-10-09T20:01:04.907Z,14.2
2022-10-09T20:03:05.019Z,14.2
2022-10-09T20:04:05.130Z,14.2
2022-10-09T20:05:05.356Z,14.2
2022-10-09T20:06:04.820Z,14.2
2022-10-09T20:08:04.818Z,14.2
2022-10-09T20:10:05.292Z,14.2
2022-10-09T20:11:04.819Z,14.1
2022-10-09T20:13:04.831Z,14
2022-10-09T20:14:04.815Z,14
2022-10-09T20:16:04.822Z,13.9
2022-10-09T20:17:04.968Z,13.9
2022-10-09T20:18:04.847Z,13.9
2022-10-09T20:19:04.864Z,14
2022-10-09T20:20:05.109Z,14
2022-10-09T20:21:05.119Z,14
2022-10-09T20:22:05.057Z,14
2022-10-09T20:23:04.814Z,13.9
2022-10-09T20:25:05.304Z,13.9
2022-10-09T20:26:04.824Z,13.9
2022-10-09T20:27:04.816Z,13.9
2022-10-09T20:28:04.860Z,13.9
2022-10-09T20:29:04.817Z,13.9
2022-10-09T20:30:04.834Z,13.9
2022-10-09T20:31:05.108Z,13.9
2022-10-09T20:32:05.354Z,13.9
2022-10-09T20:36:04.822Z,13.8
2022-10-09T20:38:04.818Z,13.7
2022-10-09T20:39:04.821Z,13.8
2022-10-09T20:41:05.030Z,13.7
2022-10-09T20:42:05.170Z,13.6
2022-10-09T20:43:04.822Z,13.7
2022-10-09T20:44:04.854Z,13.7
2022-10-09T20:47:05.294Z,13.7
2022-10-09T20:48:05.179Z,13.7
2022-10-09T20:49:05.192Z,13.7
2022-10-09T20:50:04.859Z,13.7
2022-10-09T20:51:04.823Z,13.7
2022-10-09T20:53:05.258Z,13.6
2022-10-09T20:54:04.834Z,13.7
2022-10-09T20:55:05.125Z,13.7
2022-10-09T20:56:04.822Z,13.7
2022-10-09T20:59:04.824Z,13.7
2022-10-09T21:00:04.877Z,13.7
2022-10-09T21:01:04.856Z,13.7
2022-10-09T21:02:05.121Z,13.7
2022-10-09T21:03:07.396Z,13.7
2022-10-09T21:04:04.824Z,13.7
2022-10-09T21:05:04.828Z,13.6
2022-10-09T21:07:04.828Z,13.6
2022-10-09T21:09:04.829Z,13.6
2022-10-09T21:11:04.822Z,13.6
2022-10-09T21:12:05.208Z,13.5
2022-10-09T21:14:04.819Z,13.5
2022-10-09T21:16:05.030Z,13.5
2022-10-09T21:17:04.838Z,13.4
2022-10-09T21:18:04.823Z,13.4
2022-10-09T21:20:05.153Z,13.4
2022-10-09T21:21:04.896Z,13.4
2022-10-09T21:22:05.124Z,13.4
2022-10-09T21:23:04.825Z,13.4
2022-10-09T21:24:04.818Z,13.3
2022-10-09T21:25:04.822Z,13.3
2022-10-09T21:26:04.838Z,13.3
2022-10-09T21:27:04.843Z,13.3
2022-10-09T21:28:04.889Z,13.3
2022-10-09T21:29:04.826Z,13.3
2022-10-09T21:32:04.835Z,13.2
2022-10-09T21:33:04.823Z,13.2
2022-10-09T21:34:05.193Z,13.1
2022-10-09T21:37:21.859Z,13
2022-10-09T21:38:05.206Z,13
2022-10-09T21:39:04.846Z,12.9
2022-10-09T21:40:04.826Z,12.9
2022-10-09T21:43:04.828Z,13
2022-10-09T21:44:04.998Z,13
2022-10-09T21:45:05.340Z,13
2022-10-09T21:47:04.919Z,13
2022-10-09T21:49:07.677Z,13
2022-10-09T21:50:04.824Z,12.9
2022-10-09T21:54:04.831Z,12.9
2022-10-09T21:56:04.825Z,12.8
2022-10-09T21:57:04.823Z,12.8
2022-10-09T21:58:04.829Z,12.8
2022-10-09T22:00:04.824Z,12.7
2022-10-09T22:01:04.846Z,12.7
2022-10-09T22:02:05.117Z,12.7
2022-10-09T22:03:04.821Z,12.7
2022-10-09T22:04:05.149Z,12.7
2022-10-09T22:08:04.938Z,12.6
2022-10-09T22:09:04.825Z,12.6
2022-10-09T22:10:05.226Z,12.5
2022-10-09T22:11:05.430Z,12.5
2022-10-09T22:12:05.148Z,12.5
2022-10-09T22:14:05.207Z,12.4
2022-10-09T22:15:05.285Z,12.4
2022-10-09T22:18:04.900Z,12.3
2022-10-09T22:19:05.419Z,12.4
2022-10-09T22:20:04.838Z,12.4
2022-10-09T22:21:04.825Z,12.4
2022-10-09T22:22:05.028Z,12.5
2022-10-09T22:23:04.862Z,12.5
2022-10-09T22:24:04.853Z,12.5
2022-10-09T22:25:04.832Z,12.4
2022-10-09T22:26:04.830Z,12.4
2022-10-09T22:27:04.831Z,12.4
2022-10-09T22:28:05.144Z,12.5
2022-10-09T22:29:04.936Z,12.4
2022-10-09T22:30:04.864Z,12.4
2022-10-09T22:32:05.199Z,12.4
2022-10-09T22:33:04.839Z,12.3
2022-10-09T22:34:05.036Z,12.3
2022-10-09T22:35:04.837Z,12.3
2022-10-09T22:37:04.850Z,12.3
2022-10-09T22:39:05.342Z,12.2
2022-10-09T22:40:05.236Z,12.2
2022-10-09T22:42:05.044Z,12.1
2022-10-09T22:43:05.367Z,12
2022-10-09T22:44:04.969Z,12
2022-10-09T22:45:04.835Z,12
2022-10-09T22:47:04.822Z,11.8
2022-10-09T22:48:04.829Z,11.8
2022-10-09T22:49:05.437Z,11.8
2022-10-09T22:50:04.845Z,11.8
2022-10-09T22:52:04.836Z,11.8
2022-10-09T22:53:04.828Z,11.8
2022-10-09T22:54:04.876Z,11.9
2022-10-09T22:56:04.833Z,11.7
2022-10-09T22:57:05.293Z,11.6
2022-10-09T22:58:04.838Z,11.5
2022-10-09T23:01:05.217Z,11.4
2022-10-09T23:02:04.835Z,11.4
2022-10-09T23:03:04.935Z,11.4
2022-10-09T23:04:04.890Z,11.3
2022-10-09T23:05:04.829Z,11.2
2022-10-09T23:06:04.832Z,11.2
2022-10-09T23:07:04.840Z,11.3
2022-10-09T23:08:05.313Z,11.4
2022-10-09T23:10:04.836Z,11.4
2022-10-09T23:11:04.953Z,11.4
2022-10-09T23:14:04.840Z,11.4
2022-10-09T23:15:04.835Z,11.4
2022-10-09T23:17:05.206Z,11.5
2022-10-09T23:18:05.325Z,11.5
2022-10-09T23:19:06.944Z,11.5
2022-10-09T23:20:05.297Z,11.5
2022-10-09T23:24:04.839Z,11.4
2022-10-09T23:25:04.874Z,11.5
2022-10-09T23:26:04.885Z,11.4
2022-10-09T23:27:04.836Z,11.4
2022-10-09T23:29:04.839Z,11.4
2022-10-09T23:30:04.872Z,11.4
2022-10-09T23:31:04.830Z,11.4
2022-10-09T23:32:05.197Z,11.4
2022-10-09T23:33:05.268Z,11.4
2022-10-09T23:36:04.838Z,11.4
2022-10-09T23:39:04.845Z,11.5
2022-10-09T23:40:04.835Z,11.5
2022-10-09T23:41:04.837Z,11.4
2022-10-09T23:42:04.843Z,11.3
2022-10-09T23:44:04.832Z,11.2
2022-10-09T23:46:04.840Z,11.2
2022-10-09T23:47:04.840Z,11.2
2022-10-09T23:48:04.902Z,11.3
2022-10-09T23:50:04.879Z,11.2
2022-10-09T23:51:04.845Z,11.1
2022-10-09T23:52:04.938Z,11.1
2022-10-09T23:53:04.944Z,11
2022-10-09T23:54:05.310Z,11
2022-10-09T23:55:04.858Z,11.1
2022-10-09T23:57:04.836Z,11
2022-10-09T23:58:04.864Z,11
2022-10-09T23:59:05.134Z,11.1
